createdAt,value
2023-05-10T00:01:11.940Z,12.40
2023-05-10T00:03:39.645Z,12.52
2023-05-10T00:06:07.310Z,12.65
2023-05-10T00:08:34.970Z,12.58
2023-05-10T00:11:02.813Z,12.33
2023-05-10T00:13:30.550Z,12.32
2023-05-10T00:15:59.567Z,12.38
2023-05-10T00:18:27.244Z,12.25
2023-05-10T00:20:54.811Z,12.22
2023-05-10T00:23:22.370Z,12.20
2023-05-10T00:25:49.941Z,12.33
2023-05-10T00:28:17.542Z,12.15
2023-05-10T00:30:45.102Z,12.12
2023-05-10T00:33:14.068Z,12.07
2023-05-10T00:35:41.902Z,12.19
2023-05-10T00:38:13.167Z,12.27
2023-05-10T00:40:40.742Z,12.16
2023-05-10T00:43:14.424Z,12.18
2023-05-10T00:45:42.336Z,12.10
2023-05-10T00:48:10.046Z,12.10
2023-05-10T00:50:41.126Z,12.08
2023-05-10T00:53:08.863Z,12.01
2023-05-10T00:55:36.466Z,11.93
2023-05-10T00:58:04.077Z,11.84
2023-05-10T01:00:31.731Z,11.84
2023-05-10T01:03:00.686Z,11.82
2023-05-10T01:05:28.502Z,11.77
2023-05-10T01:07:57.439Z,11.69
2023-05-10T01:10:25.047Z,11.74
2023-05-10T01:12:52.633Z,11.83
2023-05-10T01:15:23.112Z,11.73
2023-05-10T01:17:50.724Z,11.65
2023-05-10T01:20:18.565Z,11.65
2023-05-10T01:23:01.322Z,11.60
2023-05-10T01:25:42.115Z,11.56
2023-05-10T01:28:12.162Z,11.83
2023-05-10T01:30:57.779Z,11.65
2023-05-10T01:33:26.775Z,11.48
2023-05-10T01:35:56.049Z,11.53
2023-05-10T01:38:25.007Z,11.53
2023-05-10T01:40:55.343Z,11.53
2023-05-10T01:43:24.402Z,11.62
2023-05-10T01:45:56.741Z,11.58
2023-05-10T01:48:25.662Z,11.50
2023-05-10T01:50:54.786Z,11.67
2023-05-10T01:53:22.436Z,11.61
2023-05-10T01:55:51.333Z,11.46
2023-05-10T01:58:19.536Z,11.41
2023-05-10T02:00:47.165Z,11.35
2023-05-10T02:03:14.928Z,11.35
2023-05-10T02:05:42.970Z,11.29
2023-05-10T02:08:12.011Z,11.26
2023-05-10T02:10:39.764Z,11.27
2023-05-10T02:13:09.160Z,11.30
2023-05-10T02:15:36.795Z,11.28
2023-05-10T02:18:04.451Z,11.47
2023-05-10T02:20:32.031Z,11.43
2023-05-10T02:22:59.643Z,11.32
2023-05-10T02:25:28.594Z,11.32
2023-05-10T02:27:56.579Z,10.97
2023-05-10T02:30:24.247Z,11.06
2023-05-10T02:32:52.051Z,11.07
2023-05-10T02:35:19.646Z,10.97
2023-05-10T02:37:47.207Z,11.07
2023-05-10T02:40:15.053Z,11.04
2023-05-10T02:42:44.127Z,11.05
2023-05-10T02:45:13.110Z,10.99
2023-05-10T02:47:40.702Z,10.92
2023-05-10T02:50:08.685Z,10.94
2023-05-10T02:52:39.114Z,10.95
2023-05-10T02:55:07.110Z,11.11
2023-05-10T02:57:35.695Z,11.04
2023-05-10T03:00:04.986Z,11.17
2023-05-10T03:02:32.690Z,11.09
2023-05-10T03:05:02.226Z,11.04
2023-05-10T03:07:29.990Z,10.99
2023-05-10T03:09:57.582Z,10.97
2023-05-10T03:12:27.119Z,11.05
2023-05-10T03:14:55.444Z,11.20
2023-05-10T03:17:27.957Z,11.23
2023-05-10T03:19:56.472Z,11.08
2023-05-10T03:22:26.264Z,10.98
2023-05-10T03:24:54.462Z,11.03
2023-05-10T03:27:22.052Z,10.71
2023-05-10T03:29:49.890Z,10.70
2023-05-10T03:32:17.730Z,10.69
2023-05-10T03:34:46.704Z,10.61
2023-05-10T03:37:14.414Z,10.67
2023-05-10T03:39:42.281Z,10.78
2023-05-10T03:42:12.872Z,10.76
2023-05-10T03:44:40.787Z,10.78
2023-05-10T03:47:08.788Z,10.58
2023-05-10T03:49:36.684Z,10.59
2023-05-10T03:52:06.338Z,10.62
2023-05-10T03:54:34.220Z,10.56
2023-05-10T03:57:02.492Z,10.55
2023-05-10T03:59:31.176Z,10.49
2023-05-10T04:01:58.773Z,10.54
2023-05-10T04:04:26.439Z,10.50
2023-05-10T04:06:54.072Z,10.57
2023-05-10T04:09:23.112Z,10.48
2023-05-10T04:11:53.148Z,10.48
2023-05-10T04:14:20.736Z,10.54
2023-05-10T04:16:48.351Z,10.41
2023-05-10T04:19:16.091Z,10.71
2023-05-10T04:21:43.659Z,10.96
2023-05-10T04:24:11.702Z,10.66
2023-05-10T04:26:44.035Z,10.75
2023-05-10T04:29:11.615Z,10.81
2023-05-10T04:31:39.519Z,10.92
2023-05-10T04:34:07.113Z,10.87
2023-05-10T04:36:36.604Z,11.00
2023-05-10T04:39:04.811Z,10.99
2023-05-10T04:41:35.586Z,11.01
2023-05-10T04:44:04.662Z,11.04
2023-05-10T04:46:32.346Z,11.06
2023-05-10T04:49:00.107Z,10.91
2023-05-10T04:51:27.659Z,10.92
2023-05-10T04:54:05.350Z,10.98
2023-05-10T04:56:33.928Z,10.88
2023-05-10T04:59:01.514Z,11.21
2023-05-10T05:01:30.438Z,11.01
2023-05-10T05:03:58.222Z,11.17
2023-05-10T05:06:28.170Z,11.10
2023-05-10T05:08:56.110Z,11.36
2023-05-10T05:11:23.756Z,11.44
2023-05-10T05:13:51.334Z,11.56
2023-05-10T05:16:18.911Z,11.64
2023-05-10T05:18:47.928Z,11.56
2023-05-10T05:21:15.958Z,11.73
2023-05-10T05:23:43.508Z,11.85
2023-05-10T05:26:14.314Z,11.83
2023-05-10T05:28:41.930Z,11.97
2023-05-10T05:31:09.664Z,11.99
2023-05-10T05:33:39.829Z,12.22
2023-05-10T05:36:16.360Z,12.08
2023-05-10T05:38:49.281Z,12.24
2023-05-10T05:41:16.991Z,12.14
2023-05-10T05:43:44.586Z,12.15
2023-05-10T05:46:12.153Z,12.11
2023-05-10T05:48:39.749Z,12.13
2023-05-10T05:51:07.541Z,12.29
2023-05-10T05:53:36.533Z,12.24
2023-05-10T05:56:04.649Z,12.20
2023-05-10T05:58:32.296Z,12.17
2023-05-10T06:00:59.970Z,12.12
2023-05-10T06:03:27.633Z,12.18
2023-05-10T06:05:55.260Z,12.32
2023-05-10T06:08:25.257Z,12.32
2023-05-10T06:10:54.160Z,12.41
2023-05-10T06:13:22.035Z,12.25
2023-05-10T06:15:49.713Z,12.41
2023-05-10T06:18:17.347Z,12.52
2023-05-10T06:20:46.152Z,12.73
2023-05-10T06:23:13.859Z,12.75
2023-05-10T06:25:41.462Z,12.69
2023-05-10T06:28:10.450Z,12.69
2023-05-10T06:30:38.067Z,12.77
2023-05-10T06:33:05.894Z,12.97
2023-05-10T06:35:34.553Z,12.84
2023-05-10T06:38:02.132Z,13.04
2023-05-10T06:40:29.755Z,12.92
2023-05-10T06:42:57.353Z,12.88
2023-05-10T06:45:26.232Z,13.12
2023-05-10T06:47:53.910Z,13.09
2023-05-10T06:50:21.613Z,13.25
2023-05-10T06:52:49.890Z,13.21
2023-05-10T06:55:19.027Z,13.28
2023-05-10T06:57:46.705Z,13.23
2023-05-10T07:00:14.816Z,13.19
2023-05-10T07:02:44.006Z,13.24
2023-05-10T07:05:11.516Z,13.17
2023-05-10T07:07:39.036Z,13.25
2023-05-10T07:10:06.990Z,13.18
2023-05-10T07:12:34.590Z,13.30
2023-05-10T07:15:02.220Z,13.46
2023-05-10T07:17:29.883Z,13.37
2023-05-10T07:20:01.198Z,13.57
2023-05-10T07:22:28.843Z,13.55
2023-05-10T07:24:56.687Z,13.48
2023-05-10T07:27:24.250Z,13.58
2023-05-10T07:29:51.759Z,13.64
2023-05-10T07:32:19.411Z,13.61
2023-05-10T07:34:46.994Z,13.81
2023-05-10T07:37:15.931Z,13.88
2023-05-10T07:39:43.472Z,14.04
2023-05-10T07:42:11.108Z,13.70
2023-05-10T07:44:38.652Z,13.40
2023-05-10T07:47:06.249Z,13.38
2023-05-10T07:49:33.837Z,13.41
2023-05-10T07:52:01.618Z,13.01
2023-05-10T07:54:30.463Z,13.06
2023-05-10T07:56:58.062Z,12.81
2023-05-10T07:59:25.569Z,12.99
2023-05-10T08:01:53.167Z,12.86
2023-05-10T08:04:23.151Z,12.74
2023-05-10T08:06:50.863Z,12.67
2023-05-10T08:09:18.849Z,12.76
2023-05-10T08:11:47.726Z,12.58
2023-05-10T08:14:15.292Z,12.70
2023-05-10T08:16:42.872Z,12.69
2023-05-10T08:19:12.149Z,12.78
2023-05-10T08:21:41.540Z,12.96
2023-05-10T08:24:09.301Z,12.83
2023-05-10T08:26:36.844Z,12.71
2023-05-10T08:29:05.849Z,12.52
2023-05-10T08:31:35.304Z,12.42
2023-05-10T08:34:04.185Z,12.40
2023-05-10T08:36:33.605Z,12.39
2023-05-10T08:39:01.169Z,12.27
2023-05-10T08:41:28.806Z,12.38
2023-05-10T08:43:56.340Z,12.35
2023-05-10T08:46:27.690Z,12.33
2023-05-10T08:48:55.290Z,12.37
2023-05-10T08:51:24.763Z,12.56
2023-05-10T08:53:52.302Z,12.44
2023-05-10T08:56:23.572Z,12.55
2023-05-10T08:58:51.112Z,12.87
2023-05-10T09:01:18.732Z,12.80
2023-05-10T09:03:47.854Z,12.85
2023-05-10T09:06:15.496Z,12.97
2023-05-10T09:08:43.819Z,12.88
2023-05-10T09:11:11.436Z,12.84
2023-05-10T09:13:39.011Z,12.99
2023-05-10T09:16:17.471Z,12.98
2023-05-10T09:18:53.342Z,12.94
2023-05-10T09:21:21.321Z,12.99
2023-05-10T09:23:52.108Z,13.12
2023-05-10T09:26:19.662Z,13.27
2023-05-10T09:28:53.682Z,13.16
2023-05-10T09:31:21.489Z,13.38
2023-05-10T09:33:50.635Z,13.36
2023-05-10T09:36:18.233Z,13.56
2023-05-10T09:38:49.233Z,13.25
2023-05-10T09:41:20.391Z,13.35
2023-05-10T09:43:47.942Z,13.41
2023-05-10T09:46:15.593Z,13.49
2023-05-10T09:48:43.725Z,13.42
2023-05-10T09:51:13.783Z,13.47
2023-05-10T09:53:41.357Z,13.62
2023-05-10T09:56:08.960Z,13.65
2023-05-10T09:58:38.475Z,13.79
2023-05-10T10:01:12.780Z,13.58
2023-05-10T10:03:43.677Z,13.71
2023-05-10T10:06:22.888Z,13.54
2023-05-10T10:08:58.002Z,13.48
2023-05-10T10:11:25.663Z,13.62
2023-05-10T10:13:56.620Z,13.60
2023-05-10T10:16:24.256Z,13.64
2023-05-10T10:18:52.020Z,13.66
2023-05-10T10:21:21.391Z,13.45
2023-05-10T10:23:49.022Z,13.13
2023-05-10T10:26:16.682Z,13.20
2023-05-10T10:28:47.248Z,13.29
2023-05-10T10:31:18.124Z,13.21
2023-05-10T10:34:09.648Z,13.11
2023-05-10T10:36:46.628Z,13.02
2023-05-10T10:39:19.975Z,12.98
2023-05-10T10:41:51.563Z,13.22
2023-05-10T10:44:25.649Z,13.12
2023-05-10T10:47:21.896Z,13.32
2023-05-10T10:49:50.652Z,13.18
2023-05-10T10:52:24.144Z,13.37
2023-05-10T10:54:52.575Z,13.53
2023-05-10T10:57:21.547Z,13.44
2023-05-10T10:59:51.936Z,13.31
2023-05-10T11:02:35.011Z,13.35
2023-05-10T11:05:23.721Z,13.47
2023-05-10T11:07:56.030Z,13.27
2023-05-10T11:10:23.703Z,13.13
2023-05-10T11:12:55.066Z,13.27
2023-05-10T11:15:26.304Z,13.42
2023-05-10T11:18:02.868Z,13.48
2023-05-10T11:20:36.472Z,13.63
2023-05-10T11:23:16.514Z,13.65
2023-05-10T11:25:45.190Z,13.44
2023-05-10T11:28:12.765Z,13.38
2023-05-10T11:30:42.168Z,13.07
2023-05-10T11:33:10.011Z,13.14
2023-05-10T11:35:43.147Z,13.26
2023-05-10T11:38:11.650Z,13.38
2023-05-10T11:40:40.712Z,13.43
2023-05-10T11:43:08.289Z,13.61
2023-05-10T11:45:35.887Z,13.73
2023-05-10T11:48:03.547Z,13.77
2023-05-10T11:50:31.137Z,13.82
2023-05-10T11:52:59.775Z,13.81
2023-05-10T11:55:27.429Z,13.66
2023-05-10T11:58:00.848Z,13.81
2023-05-10T12:00:28.390Z,13.95
2023-05-10T12:02:56.198Z,13.54
2023-05-10T12:05:23.800Z,13.53
2023-05-10T12:07:51.369Z,13.89
2023-05-10T12:10:21.859Z,13.76
2023-05-10T12:12:49.803Z,13.88
2023-05-10T12:15:20.870Z,14.06
2023-05-10T12:17:48.640Z,14.15
2023-05-10T12:20:19.964Z,14.12
2023-05-10T12:22:48.458Z,14.04
2023-05-10T12:25:18.123Z,14.47
2023-05-10T12:27:52.863Z,13.96
2023-05-10T12:30:28.261Z,14.07
2023-05-10T12:32:56.029Z,13.85
2023-05-10T12:35:25.093Z,13.77
2023-05-10T12:37:52.701Z,13.89
2023-05-10T12:40:22.311Z,14.13
2023-05-10T12:42:49.975Z,13.84
2023-05-10T12:45:18.243Z,14.06
2023-05-10T12:47:47.186Z,14.17
2023-05-10T12:50:15.012Z,14.61
2023-05-10T12:52:42.758Z,14.36
2023-05-10T12:55:10.590Z,14.36
2023-05-10T12:57:38.163Z,13.97
2023-05-10T13:00:06.477Z,14.19
2023-05-10T13:02:34.102Z,13.90
2023-05-10T13:05:03.388Z,14.04
2023-05-10T13:07:37.444Z,14.18
2023-05-10T13:10:05.556Z,14.24
2023-05-10T13:12:33.140Z,14.42
2023-05-10T13:15:00.672Z,14.43
2023-05-10T13:25:55.730Z,14.61
2023-05-10T13:28:23.291Z,14.50
2023-05-10T13:30:50.919Z,14.65
2023-05-10T13:33:18.476Z,14.72
2023-05-10T13:35:46.191Z,14.61
2023-05-10T13:38:15.369Z,14.68
2023-05-10T13:40:45.999Z,14.74
2023-05-10T13:43:13.514Z,14.64
2023-05-10T13:45:42.891Z,14.77
2023-05-10T13:48:10.495Z,14.91
2023-05-10T13:50:38.141Z,14.97
2023-05-10T13:53:06.389Z,14.99
2023-05-10T13:55:35.650Z,14.84
2023-05-10T13:58:03.213Z,14.78
2023-05-10T14:00:30.786Z,14.93
2023-05-10T14:02:58.426Z,14.71
2023-05-10T14:05:26.688Z,14.71
2023-05-10T14:07:54.769Z,14.93
2023-05-10T14:10:22.414Z,14.95
2023-05-10T14:12:51.364Z,14.83
2023-05-10T14:15:26.490Z,14.93
2023-05-10T14:17:54.139Z,14.80
2023-05-10T14:20:21.758Z,14.77
2023-05-10T14:22:51.096Z,14.76
2023-05-10T14:25:19.008Z,15.03
2023-05-10T14:27:46.757Z,14.97
2023-05-10T14:30:16.535Z,14.92
2023-05-10T14:32:44.209Z,14.55
2023-05-10T14:35:15.442Z,14.71
2023-05-10T14:37:44.576Z,14.76
2023-05-10T14:40:14.268Z,14.56
2023-05-10T14:42:42.309Z,14.56
2023-05-10T14:45:10.737Z,14.58
2023-05-10T14:47:39.660Z,14.55
2023-05-10T14:50:21.419Z,14.83
2023-05-10T14:52:59.689Z,14.82
2023-05-10T14:55:27.291Z,14.69
2023-05-10T14:57:55.257Z,14.78
2023-05-10T15:00:23.403Z,14.73
2023-05-10T15:02:52.834Z,14.72
2023-05-10T15:05:23.462Z,14.65
2023-05-10T15:07:54.800Z,14.61
2023-05-10T15:10:25.701Z,14.82
2023-05-10T15:12:53.265Z,14.83
2023-05-10T15:15:20.880Z,14.50
2023-05-10T15:17:50.845Z,14.54
2023-05-10T15:20:19.918Z,14.65
2023-05-10T15:22:47.568Z,14.57
2023-05-10T15:25:15.634Z,14.25
2023-05-10T15:27:44.567Z,14.12
2023-05-10T15:30:13.092Z,14.02
2023-05-10T15:32:41.137Z,14.13
2023-05-10T15:35:09.673Z,13.96
2023-05-10T15:37:38.588Z,13.87
2023-05-10T15:40:06.728Z,13.89
2023-05-10T15:42:34.384Z,13.92
2023-05-10T15:45:01.975Z,14.14
2023-05-10T15:47:33.926Z,14.01
2023-05-10T15:50:01.532Z,14.24
2023-05-10T15:52:29.226Z,13.99
2023-05-10T15:54:58.241Z,14.11
2023-05-10T15:57:25.850Z,14.02
2023-05-10T15:59:53.674Z,14.03
2023-05-10T16:02:22.494Z,13.96
2023-05-10T16:04:50.410Z,14.35
2023-05-10T16:07:17.967Z,14.61
2023-05-10T16:09:45.787Z,14.18
2023-05-10T16:12:17.590Z,14.24
2023-05-10T16:14:47.145Z,14.37
2023-05-10T16:17:15.281Z,14.20
2023-05-10T16:19:45.446Z,14.04
2023-05-10T16:22:13.037Z,14.05
2023-05-10T16:24:40.603Z,14.12
2023-05-10T16:27:12.558Z,14.13
2023-05-10T16:29:41.976Z,13.97
2023-05-10T16:32:12.024Z,13.93
2023-05-10T16:34:39.578Z,14.11
2023-05-10T16:37:07.392Z,14.42
2023-05-10T16:39:35.027Z,14.46
2023-05-10T16:42:02.768Z,14.70
2023-05-10T16:44:31.748Z,14.72
2023-05-10T16:47:03.398Z,14.68
2023-05-10T16:49:31.575Z,14.70
2023-05-10T16:51:59.907Z,14.67
2023-05-10T16:54:27.576Z,14.75
2023-05-10T16:56:55.155Z,14.79
2023-05-10T16:59:22.797Z,14.80
2023-05-10T17:01:50.430Z,14.79
2023-05-10T17:04:21.340Z,14.82
2023-05-10T17:06:57.782Z,14.83
2023-05-10T17:09:29.689Z,14.88
2023-05-10T17:11:57.535Z,14.89
2023-05-10T17:14:25.092Z,14.76
2023-05-10T17:16:53.547Z,14.84
2023-05-10T17:19:29.709Z,14.87
2023-05-10T17:21:57.279Z,14.82
2023-05-10T17:24:26.961Z,14.85
2023-05-10T17:26:56.891Z,14.81
2023-05-10T17:29:32.134Z,14.70
2023-05-10T17:32:05.385Z,14.70
2023-05-10T17:34:34.444Z,14.77
2023-05-10T17:37:04.440Z,14.65
2023-05-10T17:39:34.340Z,14.60
2023-05-10T17:42:01.917Z,14.64
2023-05-10T17:44:32.285Z,14.91
2023-05-10T17:47:02.512Z,14.65
2023-05-10T17:49:30.123Z,14.61
2023-05-10T17:52:04.388Z,14.60
2023-05-10T17:54:34.628Z,14.59
2023-05-10T17:57:03.789Z,14.54
2023-05-10T17:59:31.339Z,14.22
2023-05-10T18:01:58.967Z,13.84
2023-05-10T18:04:31.598Z,13.84
2023-05-10T18:07:03.774Z,14.17
2023-05-10T18:09:31.785Z,14.34
2023-05-10T18:12:02.818Z,14.34
2023-05-10T18:14:41.574Z,14.20
2023-05-10T18:17:14.765Z,14.27
2023-05-10T18:19:45.819Z,14.39
2023-05-10T18:22:27.877Z,14.69
2023-05-10T18:25:02.290Z,14.34
2023-05-10T18:27:29.990Z,14.23
2023-05-10T18:30:01.556Z,14.08
2023-05-10T18:32:31.888Z,14.16
2023-05-10T18:35:04.157Z,14.00
2023-05-10T18:37:41.382Z,13.90
2023-05-10T18:40:17.288Z,14.27
2023-05-10T18:42:50.015Z,14.20
2023-05-10T18:45:18.546Z,14.27
2023-05-10T18:47:53.924Z,13.97
2023-05-10T18:53:33.017Z,13.78
2023-05-10T18:56:01.563Z,13.96
2023-05-10T18:58:36.134Z,14.25
2023-05-10T19:01:08.300Z,14.22
2023-05-10T19:03:38.406Z,14.24
2023-05-10T19:06:07.865Z,14.16
2023-05-10T19:08:50.199Z,14.28
2023-05-10T19:11:22.361Z,14.32
2023-05-10T19:36:40.093Z,13.11
2023-05-10T19:39:09.177Z,13.56
2023-05-10T19:41:38.998Z,13.68
2023-05-10T19:44:06.761Z,13.67
2023-05-10T19:46:34.433Z,13.50
2023-05-10T19:57:53.100Z,13.91
2023-05-10T20:15:30.001Z,13.77
2023-05-10T20:18:01.607Z,13.34
2023-05-10T20:20:29.535Z,13.54
2023-05-10T20:22:58.413Z,13.79
2023-05-10T20:25:30.658Z,13.65
2023-05-10T20:28:03.880Z,13.65
2023-05-10T20:30:37.861Z,13.55
2023-05-10T20:33:09.650Z,13.46
2023-05-10T20:35:37.374Z,13.81
2023-05-10T20:38:07.093Z,13.77
2023-05-10T20:40:41.781Z,13.79
2023-05-10T20:43:09.577Z,13.85
2023-05-10T20:45:39.465Z,13.68
2023-05-10T20:48:36.266Z,13.57
2023-05-10T20:51:04.517Z,13.61
2023-05-10T20:53:34.516Z,13.61
2023-05-10T20:56:02.442Z,13.80
2023-05-10T20:58:38.426Z,13.92
2023-05-10T21:01:11.046Z,13.78
2023-05-10T21:03:45.484Z,13.63
2023-05-10T21:06:13.882Z,13.50
2023-05-10T21:08:53.623Z,13.23
2023-05-10T21:11:21.558Z,12.88
2023-05-10T21:13:52.965Z,12.87
2023-05-10T21:16:24.707Z,13.36
2023-05-10T21:18:57.192Z,13.82
2023-05-10T21:21:24.827Z,13.56
2023-05-10T21:23:52.689Z,13.07
2023-05-10T21:26:26.442Z,13.65
2023-05-10T21:28:54.313Z,13.52
2023-05-10T21:31:22.088Z,13.71
2023-05-10T21:33:49.696Z,13.35
2023-05-10T21:36:18.866Z,13.43
2023-05-10T21:38:47.280Z,13.75
2023-05-10T21:41:14.841Z,13.60
2023-05-10T21:43:42.350Z,13.53
2023-05-10T21:46:10.028Z,13.67
2023-05-10T21:48:40.366Z,13.14
2023-05-10T21:51:08.076Z,12.93
2023-05-10T21:53:39.041Z,12.91
2023-05-10T21:56:07.258Z,12.76
2023-05-10T21:58:34.824Z,12.82
2023-05-10T22:01:02.681Z,13.30
2023-05-10T22:03:30.365Z,13.49
2023-05-10T22:05:58.033Z,13.38
2023-05-10T22:08:25.735Z,13.45
2023-05-10T22:10:54.822Z,13.63
2023-05-10T22:13:22.587Z,13.37
2023-05-10T22:15:50.219Z,13.40
2023-05-10T22:18:17.909Z,13.40
2023-05-10T22:20:45.716Z,13.52
2023-05-10T22:23:13.350Z,13.45
2023-05-10T22:25:40.941Z,13.78
2023-05-10T22:28:10.103Z,13.83
2023-05-10T22:30:37.654Z,14.06
2023-05-10T22:33:05.341Z,13.55
2023-05-10T22:35:33.002Z,13.61
2023-05-10T22:38:00.793Z,13.60
2023-05-10T22:40:28.386Z,13.59
2023-05-10T22:42:55.994Z,13.67
2023-05-10T22:45:24.970Z,13.56
2023-05-10T22:47:52.593Z,13.31
2023-05-10T22:50:20.631Z,13.28
2023-05-10T22:52:48.207Z,12.84
2023-05-10T22:55:16.144Z,13.13
2023-05-10T22:57:43.717Z,13.64
2023-05-10T23:00:11.776Z,13.81
2023-05-10T23:02:40.759Z,13.65
2023-05-10T23:05:09.018Z,13.59
2023-05-10T23:07:36.822Z,13.60
2023-05-10T23:10:04.484Z,13.56
2023-05-10T23:12:32.119Z,13.39
2023-05-10T23:14:59.733Z,13.45
2023-05-10T23:17:27.299Z,13.51
2023-05-10T23:19:56.357Z,13.91
2023-05-10T23:22:23.897Z,13.78
2023-05-10T23:24:51.563Z,13.62
2023-05-10T23:27:19.136Z,13.48
2023-05-10T23:29:46.698Z,13.63
2023-05-10T23:32:14.457Z,13.70
2023-05-10T23:34:42.097Z,13.58
2023-05-10T23:37:11.223Z,13.18
2023-05-10T23:39:38.774Z,13.02
2023-05-10T23:42:07.129Z,12.81
2023-05-10T23:44:34.786Z,12.36
2023-05-10T23:47:02.374Z,12.37
2023-05-10T23:49:30.137Z,12.34
2023-05-10T23:51:57.749Z,12.26
2023-05-10T23:54:26.661Z,12.30
2023-05-10T23:56:54.230Z,12.19
2023-05-10T23:59:21.915Z,12.20
